Time;durP1;ratioP1;P1;durP2;ratioP2;P2;SDS_P1;SDS_P2;PMS_P1;PMS_P2;Temp;Humidity;BMP_temperature;BMP_pressure;BME280_temperature;BME280_humidity;BME280_pressure;Samples;Min_cycle;Max_cycle;Signal;HPM_P1;HPM_P2
2021/06/17 00:02:19;;;;;;;13.95;7.70;;;;;;;18.71;60.43;100811.62;1780377;80;20995;-69
2021/06/17 00:04:46;;;;;;;13.58;7.55;;;;;;;18.69;60.54;100812.85;1773855;80;20975;-69
2021/06/17 00:07:12;;;;;;;15.20;8.18;;;;;;;18.66;60.71;100815.47;1766785;80;20997;-69
2021/06/17 00:09:38;;;;;;;11.97;7.55;;;;;;;18.64;60.79;100818.08;1778458;80;20940;-69
2021/06/17 00:12:05;;;;;;;10.68;7.00;;;;;;;18.62;60.91;100814.74;1783642;80;21190;-69
2021/06/17 00:14:32;;;;;;;12.33;7.70;;;;;;;18.59;61.04;100813.30;1784013;80;21015;-69
2021/06/17 00:16:59;;;;;;;12.90;7.80;;;;;;;18.59;61.15;100813.81;1784150;80;21504;-69
2021/06/17 00:19:25;;;;;;;13.35;8.15;;;;;;;18.57;61.26;100815.91;1784331;80;21038;-69
2021/06/17 00:21:51;;;;;;;12.03;6.97;;;;;;;18.54;61.38;100820.39;1784245;80;21009;-69
2021/06/17 00:24:17;;;;;;;11.30;7.60;;;;;;;18.52;61.48;100814.36;1776018;80;21125;-69
2021/06/17 00:26:44;;;;;;;11.03;7.65;;;;;;;18.47;61.61;100817.13;1757628;81;21550;-69
2021/06/17 00:29:10;;;;;;;14.25;7.72;;;;;;;18.45;61.75;100816.53;1757272;81;20978;-69
2021/06/17 00:31:36;;;;;;;14.40;7.97;;;;;;;18.42;61.87;100814.25;1757532;81;21076;-69
2021/06/17 00:34:02;;;;;;;13.83;8.68;;;;;;;18.42;62.03;100817.47;1757366;81;20993;-69
2021/06/17 00:36:28;;;;;;;13.68;7.28;;;;;;;18.38;62.14;100810.31;1757677;81;21152;-69
2021/06/17 00:38:54;;;;;;;13.15;8.60;;;;;;;18.37;62.28;100814.55;1756238;81;20997;-69
2021/06/17 00:41:20;;;;;;;13.98;8.93;;;;;;;18.34;62.38;100812.28;1754469;81;21034;-69
2021/06/17 00:43:46;;;;;;;11.10;8.53;;;;;;;18.30;62.50;100809.69;1754957;81;21415;-69
2021/06/17 00:46:12;;;;;;;9.60;8.55;;;;;;;18.27;62.62;100802.84;1754775;81;21435;-69
2021/06/17 00:48:38;;;;;;;13.88;8.00;;;;;;;18.26;62.72;100812.52;1754855;81;21221;-69
2021/06/17 00:51:05;;;;;;;13.35;8.18;;;;;;;18.25;62.87;100812.20;1741200;80;21085;-69
2021/06/17 00:53:33;;;;;;;13.72;8.65;;;;;;;18.25;63.00;100814.39;1733315;82;21060;-69
2021/06/17 00:55:59;;;;;;;12.60;9.25;;;;;;;18.24;63.13;100810.02;1733503;82;21020;-69
2021/06/17 00:58:26;;;;;;;15.10;8.95;;;;;;;18.22;63.22;100812.11;1733364;82;21000;-69
2021/06/17 01:00:52;;;;;;;18.45;9.18;;;;;;;18.21;63.30;100814.49;1733507;82;21777;-69
2021/06/17 01:03:19;;;;;;;15.85;9.58;;;;;;;18.21;63.43;100825.30;1733615;82;20977;-69
2021/06/17 01:05:45;;;;;;;15.18;8.93;;;;;;;18.20;63.53;100818.73;1733954;82;21005;-69
2021/06/17 01:08:38;;;;;;;12.53;8.90;;;;;;;18.18;63.60;100816.27;1733562;82;20989;-69
2021/06/17 01:11:48;;;;;;;11.63;8.10;;;;;;;18.19;63.68;100813.86;1737404;82;21073;-69
2021/06/17 01:14:24;;;;;;;13.75;9.43;;;;;;;18.19;63.81;100813.86;1738523;82;21751;-69
2021/06/17 01:17:04;;;;;;;12.25;8.65;;;;;;;18.18;63.93;100813.56;1738600;82;21081;-69
2021/06/17 01:19:36;;;;;;;15.80;9.75;;;;;;;18.17;64.02;100811.89;1738667;82;21013;-69
2021/06/17 01:22:16;;;;;;;12.65;9.30;;;;;;;18.18;64.14;100813.56;1732488;81;21006;-69
2021/06/17 01:25:04;;;;;;;12.73;9.08;;;;;;;18.18;64.23;100811.38;1738636;82;21014;-69
2021/06/17 01:28:04;;;;;;;15.18;9.53;;;;;;;18.18;64.32;100811.38;1738663;81;21215;-69
2021/06/17 01:30:30;;;;;;;13.80;10.03;;;;;;;18.16;64.40;100808.88;1738493;82;21005;-69
2021/06/17 01:33:01;;;;;;;13.40;9.38;;;;;;;18.14;64.47;100806.09;1738346;82;20982;-69
2021/06/17 01:35:30;;;;;;;16.30;10.10;;;;;;;18.11;64.58;100808.69;1738572;82;20982;-69
2021/06/17 01:37:58;;;;;;;12.30;8.88;;;;;;;18.09;64.66;100801.30;1738742;82;21025;-69
2021/06/17 01:40:26;;;;;;;15.45;8.75;;;;;;;18.08;64.75;100802.36;1738715;82;21129;-69
2021/06/17 01:42:52;;;;;;;14.98;9.48;;;;;;;18.07;64.86;100799.34;1738206;82;21032;-69
2021/06/17 01:45:20;;;;;;;15.90;9.55;;;;;;;18.07;64.98;100801.21;1738122;82;21100;-69
2021/06/17 01:47:47;;;;;;;15.55;11.00;;;;;;;18.05;65.05;100800.05;1708008;82;21455;-69
2021/06/17 01:50:13;;;;;;;14.75;10.03;;;;;;;18.03;65.12;100798.09;1738462;82;21316;-69
2021/06/17 01:52:39;;;;;;;15.85;11.25;;;;;;;18.02;65.20;100797.78;1738551;82;21962;-69
2021/06/17 01:55:07;;;;;;;15.70;10.72;;;;;;;17.99;65.24;100799.55;1738524;82;21532;-69
2021/06/17 01:57:33;;;;;;;14.28;9.43;;;;;;;17.97;65.32;100801.64;1738470;82;20990;-69
2021/06/17 01:59:59;;;;;;;16.85;9.05;;;;;;;17.94;65.38;100800.70;1738053;81;21483;-69
2021/06/17 02:02:25;;;;;;;12.68;9.08;;;;;;;17.92;65.49;100802.77;1707627;82;21072;-68
2021/06/17 02:04:51;;;;;;;12.30;8.60;;;;;;;17.89;65.56;100800.48;1738447;82;21149;-69
2021/06/17 02:07:19;;;;;;;17.32;9.95;;;;;;;17.87;65.67;100798.53;1738139;82;21076;-69
2021/06/17 02:09:45;;;;;;;12.18;9.83;;;;;;;17.85;65.79;100794.67;1740967;81;21144;-69
2021/06/17 02:12:12;;;;;;;15.13;10.23;;;;;;;17.83;65.85;100801.33;1757424;81;20985;-69
2021/06/17 02:14:38;;;;;;;16.77;11.12;;;;;;;17.81;65.93;100800.69;1757394;81;21453;-69
2021/06/17 02:17:05;;;;;;;15.55;10.95;;;;;;;17.80;66.03;100800.40;1757489;81;21904;-69
2021/06/17 02:19:32;;;;;;;16.32;11.10;;;;;;;17.77;66.08;100803.48;1757322;81;21069;-69
2021/06/17 02:22:00;;;;;;;16.00;10.53;;;;;;;17.75;66.16;100802.87;1727861;81;20997;-69
2021/06/17 02:24:27;;;;;;;16.37;10.65;;;;;;;17.73;66.25;100798.21;1757283;81;21036;-69
2021/06/17 03:01:11;;;;;;;13.30;10.32;;;;;;;17.54;67.34;100795.77;1926545;74;22602;-69
2021/06/17 03:03:46;;;;;;;;;;;;;;;17.49;67.39;100800.42;1868573;77;21008;-69
2021/06/17 03:06:17;;;;;;;17.40;10.72;;;;;;;17.51;67.43;100791.30;1865952;76;21040;-69
2021/06/17 03:08:58;;;;;;;15.70;10.78;;;;;;;17.48;67.47;100793.39;1835106;77;21002;-69
2021/06/17 03:11:26;;;;;;;14.83;9.88;;;;;;;17.52;67.53;100792.97;1865789;77;21172;-69
2021/06/17 03:13:56;;;;;;;15.38;10.50;;;;;;;17.54;67.59;100790.89;1865373;77;20958;-69
2021/06/17 03:16:28;;;;;;;15.68;11.10;;;;;;;17.56;67.64;100790.18;1843245;75;21033;-69
2021/06/17 03:18:55;;;;;;;14.93;10.13;;;;;;;17.59;67.68;100788.45;1876499;75;21235;-69
2021/06/17 03:21:23;;;;;;;18.15;12.88;;;;;;;17.63;67.73;100797.77;1866060;77;20967;-69
2021/06/17 03:23:49;;;;;;;14.05;11.15;;;;;;;17.68;67.78;100795.29;1866019;77;20999;-69
2021/06/17 03:26:15;;;;;;;14.47;10.90;;;;;;;17.93;67.95;100790.94;1865720;77;20953;-69
2021/06/17 03:28:41;;;;;;;16.50;10.30;;;;;;;18.41;68.00;100792.33;1865814;77;21015;-69
2021/06/17 03:31:08;;;;;;;11.35;9.50;;;;;;;19.09;67.82;100794.61;1805995;77;21016;-69
2021/06/17 03:33:36;;;;;;;13.45;9.80;;;;;;;19.70;67.39;100793.55;1865766;77;21003;-69
2021/06/17 03:36:03;;;;;;;14.58;10.00;;;;;;;20.19;67.00;100793.53;1865504;77;21019;-69
2021/06/17 03:38:29;;;;;;;14.30;9.83;;;;;;;20.62;66.52;100795.41;1865799;76;20964;-70
2021/06/17 03:40:56;;;;;;;14.47;10.45;;;;;;;20.92;65.95;100801.72;1865322;77;21010;-70
2021/06/17 03:43:22;;;;;;;16.23;9.50;;;;;;;21.13;65.40;100799.91;1865743;77;21141;-70
2021/06/17 03:45:48;;;;;;;11.75;9.10;;;;;;;21.53;64.95;100792.04;1834768;77;21002;-70
2021/06/17 03:48:14;;;;;;;14.78;9.08;;;;;;;21.82;64.29;100795.73;1865464;77;20943;-70
2021/06/17 03:50:42;;;;;;;13.48;9.45;;;;;;;22.16;63.79;100791.45;1865948;77;21420;-70
2021/06/17 03:53:08;;;;;;;11.38;9.00;;;;;;;22.35;63.07;100789.72;1865828;77;20951;-70
2021/06/17 03:55:34;;;;;;;11.90;9.00;;;;;;;22.58;62.40;100790.77;1865727;77;21495;-70
2021/06/17 03:58:01;;;;;;;11.63;9.10;;;;;;;22.81;61.78;100783.94;1890159;75;21230;-70
2021/06/17 04:00:30;;;;;;;29.30;9.35;;;;;;;23.21;61.13;100790.20;1900668;75;21700;-70
2021/06/17 04:02:55;;;;;;;16.30;10.27;;;;;;;23.53;60.44;100789.72;1871780;75;20970;-70
2021/06/17 04:05:21;;;;;;;17.20;8.93;;;;;;;23.62;59.52;100786.87;1901366;75;21420;-70
2021/06/17 04:07:50;;;;;;;16.05;9.68;;;;;;;23.71;59.00;100784.05;1901129;75;21766;-70
2021/06/17 04:10:17;;;;;;;12.10;8.88;;;;;;;23.87;58.46;100777.77;1900708;75;20958;-70
2021/06/17 04:12:43;;;;;;;14.68;9.18;;;;;;;24.29;57.84;100777.63;1870993;75;21402;-70
2021/06/17 04:15:10;;;;;;;12.75;8.75;;;;;;;24.29;57.13;100772.71;1900260;75;21463;-70
2021/06/17 04:17:41;;;;;;;12.45;9.83;;;;;;;24.38;56.66;100773.39;1900272;75;21010;-70
2021/06/17 04:20:12;;;;;;;9.55;8.50;;;;;;;24.62;55.99;100770.45;1900381;75;21686;-70
2021/06/17 04:22:40;;;;;;;16.17;9.23;;;;;;;24.77;55.58;100759.17;1899010;75;21495;-70
2021/06/17 04:25:08;;;;;;;11.95;9.70;;;;;;;24.96;54.82;100763.80;1900649;75;20974;-70
2021/06/17 04:27:35;;;;;;;14.38;8.93;;;;;;;24.72;53.81;100759.66;1900293;75;21382;-70
2021/06/17 04:30:01;;;;;;;11.75;9.75;;;;;;;24.29;53.91;100768.09;1900791;75;21000;-70
2021/06/17 04:32:27;;;;;;;12.58;8.78;;;;;;;23.75;53.99;100766.14;1900317;75;22402;-70
2021/06/17 04:34:55;;;;;;;14.13;9.03;;;;;;;23.34;54.49;100765.39;1900542;75;20966;-70
2021/06/17 04:37:23;;;;;;;12.40;9.05;;;;;;;23.07;54.74;100767.06;1900511;75;20963;-70
2021/06/17 04:39:50;;;;;;;12.60;8.83;;;;;;;22.96;55.04;100762.48;1900678;75;21021;-70
2021/06/17 04:42:17;;;;;;;12.05;8.93;;;;;;;23.09;55.23;100769.52;1900647;75;20971;-70
2021/06/17 04:44:43;;;;;;;15.48;9.03;;;;;;;23.16;55.31;100772.40;1900406;75;21679;-70
2021/06/17 04:47:09;;;;;;;14.05;9.50;;;;;;;23.31;55.26;100773.22;1900550;75;21021;-70
2021/06/17 04:49:35;;;;;;;14.58;9.23;;;;;;;23.33;55.23;100770.53;1900263;75;21012;-70
2021/06/17 04:52:03;;;;;;;14.58;9.10;;;;;;;23.42;55.31;100769.65;1900613;75;21006;-70
2021/06/17 04:54:29;;;;;;;13.50;9.40;;;;;;;23.42;55.14;100772.91;1900189;75;21030;-70
2021/06/17 04:56:55;;;;;;;15.40;9.73;;;;;;;23.66;55.26;100773.05;1900590;75;21751;-70
2021/06/17 04:59:21;;;;;;;15.03;9.55;;;;;;;23.89;55.09;100768.27;1900327;75;21141;-70
2021/06/17 05:01:50;;;;;;;12.03;8.55;;;;;;;24.08;54.92;100774.28;1900312;75;20947;-70
2021/06/17 05:04:17;;;;;;;13.25;9.25;;;;;;;24.38;54.82;100774.75;1900661;75;20963;-70
2021/06/17 05:06:54;;;;;;;17.20;12.40;;;;;;;24.33;54.43;100771.14;1899873;75;20970;-71
2021/06/17 05:11:56;;;;;;;14.90;11.55;;;;;;;24.52;54.20;100770.31;1900396;75;20970;-70
2021/06/17 05:14:22;;;;;;;16.35;10.48;;;;;;;24.92;54.06;100774.11;1900642;75;21002;-71
2021/06/17 05:16:48;;;;;;;10.98;9.00;;;;;;;25.12;53.84;100771.06;1900560;75;20951;-70
2021/06/17 05:19:15;;;;;;;16.05;9.48;;;;;;;25.56;53.57;100776.46;1900430;75;21432;-70
2021/06/17 05:21:42;;;;;;;16.02;9.83;;;;;;;25.68;53.16;100777.13;1900688;75;22582;-70
2021/06/17 05:24:08;;;;;;;14.78;10.43;;;;;;;25.90;52.93;100773.73;1900151;75;20966;-70
2021/06/17 05:26:35;;;;;;;12.93;8.78;;;;;;;26.13;52.57;100778.84;1900701;75;21517;-70
2021/06/17 05:29:02;;;;;;;13.83;10.28;;;;;;;26.02;51.92;100777.13;1900543;75;20955;-70
2021/06/17 05:31:28;;;;;;;13.40;9.50;;;;;;;25.76;51.82;100770.62;1900468;75;20966;-70
2021/06/17 05:33:54;;;;;;;13.65;9.58;;;;;;;25.89;51.73;100776.21;1900475;75;22564;-71
2021/06/17 05:36:20;;;;;;;16.23;10.10;;;;;;;26.02;51.52;100770.29;1900327;75;20904;-71
2021/06/17 05:38:48;;;;;;;14.15;9.30;;;;;;;26.20;51.34;100768.53;1900413;75;21555;-71
2021/06/17 05:41:14;;;;;;;13.60;9.13;;;;;;;26.16;50.99;100778.31;1900395;75;20958;-71
2021/06/17 05:43:41;;;;;;;12.35;9.33;;;;;;;26.24;51.01;100772.39;1900629;75;20986;-70
2021/06/17 05:46:07;;;;;;;15.55;10.38;;;;;;;26.46;50.77;100776.33;1900275;75;21890;-71
2021/06/17 05:48:33;;;;;;;11.20;9.88;;;;;;;26.50;50.43;100775.25;1900599;75;21423;-70
2021/06/17 05:50:59;;;;;;;14.68;9.43;;;;;;;26.47;50.22;100772.52;1900149;75;20970;-70
2021/06/17 05:53:25;;;;;;;22.00;10.98;;;;;;;26.45;50.13;100773.33;1900610;75;21386;-71
2021/06/17 05:55:51;;;;;;;17.55;10.03;;;;;;;26.55;50.02;100775.29;1900515;75;20970;-70
2021/06/17 05:58:17;;;;;;;13.83;10.00;;;;;;;26.74;49.88;100771.02;1899995;75;21793;-70
2021/06/17 06:00:43;;;;;;;12.85;9.18;;;;;;;26.97;49.70;100773.31;1897185;75;20927;-71
2021/06/17 06:03:09;;;;;;;12.75;9.33;;;;;;;27.08;49.36;100774.16;1895000;75;21005;-70
2021/06/17 06:05:35;;;;;;;14.98;10.72;;;;;;;27.08;49.21;100780.47;1895070;75;20998;-70
2021/06/17 06:08:07;;;;;;;15.28;10.63;;;;;;;27.08;49.09;100781.84;1895209;75;21006;-70
2021/06/17 06:10:32;;;;;;;13.80;9.85;;;;;;;27.41;48.91;100781.89;1894880;75;22495;-71
2021/06/17 06:12:58;;;;;;;17.57;10.08;;;;;;;27.55;48.61;100780.88;1894986;75;20947;-70
2021/06/17 06:15:25;;;;;;;14.03;9.33;;;;;;;27.23;48.10;100786.54;1890981;75;21022;-71
2021/06/17 06:17:51;;;;;;;17.70;10.05;;;;;;;26.80;47.87;100791.30;1885666;75;21986;-70
2021/06/17 06:20:17;;;;;;;16.35;10.28;;;;;;;26.65;47.90;100791.75;1873267;75;21452;-71
2021/06/17 06:22:43;;;;;;;15.63;9.93;;;;;;;26.70;47.91;100798.09;1859967;77;21775;-70
2021/06/17 06:25:10;;;;;;;17.57;9.15;;;;;;;26.89;47.98;100796.27;1885823;75;21286;-71
2021/06/17 06:27:36;;;;;;;17.90;9.58;;;;;;;27.17;47.88;100803.48;1894127;75;21486;-70
2021/06/17 06:30:03;;;;;;;13.25;9.18;;;;;;;27.45;47.70;100802.75;1888990;75;20883;-70
2021/06/17 06:32:30;;;;;;;12.05;9.90;;;;;;;27.44;47.34;100803.84;1902661;75;20921;-70
2021/06/17 06:34:58;;;;;;;13.20;10.13;;;;;;;27.53;47.28;100807.70;1870433;75;21755;-70
2021/06/17 06:37:27;;;;;;;14.58;9.85;;;;;;;27.73;47.20;100814.03;1883719;75;20980;-70
2021/06/17 06:39:53;;;;;;;16.42;10.15;;;;;;;28.03;46.96;100820.08;1877997;76;20904;-70
2021/06/17 06:42:19;;;;;;;14.70;8.80;;;;;;;28.14;46.70;100815.44;1877858;76;20972;-71
2021/06/17 06:44:45;;;;;;;16.25;10.00;;;;;;;27.84;46.23;100819.52;1860505;76;21009;-70
2021/06/17 06:47:11;;;;;;;13.43;9.13;;;;;;;27.77;45.94;100823.91;1860101;77;21756;-70
2021/06/17 06:49:37;;;;;;;12.33;8.95;;;;;;;27.74;45.86;100818.97;1860241;77;21414;-71
2021/06/17 06:52:04;;;;;;;10.98;8.70;;;;;;;27.82;45.61;100818.44;1860241;77;20982;-71
2021/06/17 06:54:30;;;;;;;10.03;8.13;;;;;;;28.00;45.53;100822.01;1859983;77;20970;-71
2021/06/17 06:56:56;;;;;;;12.73;8.70;;;;;;;28.12;45.41;100830.79;1860320;77;21410;-71
2021/06/17 06:59:22;;;;;;;10.95;8.63;;;;;;;28.11;45.03;100830.51;1864888;75;21748;-72
2021/06/17 07:01:49;;;;;;;12.15;8.45;;;;;;;28.12;44.82;100832.16;1857897;76;21021;-72
2021/06/17 07:04:15;;;;;;;10.90;8.35;;;;;;;28.00;44.51;100827.49;1876157;76;20963;-72
2021/06/17 07:06:42;;;;;;;11.15;7.08;;;;;;;28.18;44.55;100820.08;1883807;76;21054;-72
2021/06/17 07:09:08;;;;;;;13.98;7.45;;;;;;;28.52;44.37;100820.86;1870793;76;20913;-73
2021/06/17 07:11:34;;;;;;;11.83;8.85;;;;;;;28.71;44.10;100823.32;1870629;76;21794;-72
2021/06/17 07:14:00;;;;;;;14.73;8.40;;;;;;;28.90;43.95;100820.77;1883946;75;20973;-72
2021/06/17 07:16:26;;;;;;;13.48;7.10;;;;;;;29.05;43.73;100828.39;1878650;75;20974;-73
2021/06/17 07:18:53;;;;;;;8.53;6.95;;;;;;;29.15;43.54;100831.09;1855554;77;21125;-72
2021/06/17 07:21:19;;;;;;;13.38;7.17;;;;;;;28.93;43.11;100829.26;1870667;76;20970;-72
2021/06/17 07:23:50;;;;;;;12.95;7.03;;;;;;;29.15;43.13;100829.72;1804840;78;21867;-72
2021/06/17 07:26:13;;;;;;;10.48;7.67;;;;;;;29.14;42.84;100827.23;1795612;79;20990;-73
2021/06/17 07:28:39;;;;;;;10.20;8.05;;;;;;;29.30;42.66;100830.77;1808252;79;20991;-72
2021/06/17 07:31:05;;;;;;;10.38;7.28;;;;;;;29.46;42.52;100830.94;1798350;79;20986;-73
2021/06/17 07:33:32;;;;;;;11.73;7.33;;;;;;;29.59;42.39;100827.58;1831279;78;20967;-73
2021/06/17 07:35:58;;;;;;;13.50;8.13;;;;;;;29.71;42.26;100834.91;1847787;77;21529;-72
2021/06/17 07:38:24;;;;;;;10.78;7.35;;;;;;;29.79;42.08;100837.05;1827131;77;20918;-72
2021/06/17 07:40:50;;;;;;;14.23;7.40;;;;;;;29.90;41.95;100831.77;1846834;77;21011;-72
2021/06/17 07:43:16;;;;;;;7.28;6.37;;;;;;;29.93;41.63;100834.50;1848533;77;21030;-72
2021/06/17 07:45:42;;;;;;;12.70;7.20;;;;;;;29.97;41.42;100839.14;1860538;77;20990;-73
2021/06/17 07:48:11;;;;;;;9.18;7.70;;;;;;;30.00;41.25;100830.31;1847291;76;22345;-72
2021/06/17 07:50:40;;;;;;;12.37;6.67;;;;;;;30.06;41.03;100837.95;1831524;78;20983;-72
2021/06/17 07:53:06;;;;;;;8.57;5.93;;;;;;;30.09;40.88;100840.13;1799677;79;21017;-72
2021/06/17 07:55:33;;;;;;;10.70;7.75;;;;;;;30.22;40.64;100833.39;1840046;77;21392;-72
2021/06/17 07:57:59;;;;;;;8.55;6.25;;;;;;;30.09;40.32;100832.70;1832325;78;21029;-72
2021/06/17 08:00:29;;;;;;;9.43;5.72;;;;;;;29.99;40.04;100832.78;1857341;76;21896;-72
2021/06/17 08:02:53;;;;;;;9.23;6.35;;;;;;;30.06;39.96;100834.66;1848959;76;21010;-72
2021/06/17 08:05:19;;;;;;;7.70;6.12;;;;;;;30.14;39.81;100835.97;1826821;78;21011;-72
2021/06/17 08:07:45;;;;;;;9.00;5.62;;;;;;;30.19;39.66;100831.22;1797925;79;21423;-72
2021/06/17 08:10:11;;;;;;;9.43;6.50;;;;;;;30.27;39.56;100833.08;1810731;78;20985;-72
2021/06/17 08:12:37;;;;;;;7.95;5.75;;;;;;;30.32;39.38;100828.92;1810981;79;21879;-72
2021/06/17 08:15:05;;;;;;;9.45;5.65;;;;;;;30.43;39.35;100825.81;1847463;77;21284;-73
2021/06/17 08:17:31;;;;;;;8.45;5.53;;;;;;;30.58;39.27;100826.18;1856579;77;20895;-73
2021/06/17 08:19:57;;;;;;;9.30;5.33;;;;;;;30.57;38.84;100832.27;1825479;78;21012;-72
2021/06/17 08:22:27;;;;;;;9.80;5.80;;;;;;;30.41;38.57;100825.27;1803178;78;21068;-72
2021/06/17 08:24:54;;;;;;;6.03;5.42;;;;;;;30.54;38.45;100825.16;1829542;77;21694;-72
2021/06/17 08:27:21;;;;;;;10.53;6.15;;;;;;;30.17;37.88;100822.45;1857170;77;21007;-72
2021/06/17 08:29:47;;;;;;;12.85;5.53;;;;;;;30.35;38.01;100831.09;1857081;77;21444;-72
2021/06/17 08:32:13;;;;;;;12.25;6.72;;;;;;;30.46;37.95;100829.91;1823430;78;21450;-72
2021/06/17 08:34:39;;;;;;;8.55;5.58;;;;;;;30.58;37.92;100831.69;1836946;78;20950;-72
2021/06/17 08:37:05;;;;;;;8.28;5.97;;;;;;;30.68;37.75;100830.23;1882525;75;21809;-72
2021/06/17 08:39:32;;;;;;;9.48;5.87;;;;;;;30.64;37.52;100834.13;1882368;76;20967;-72
2021/06/17 08:41:58;;;;;;;9.78;6.15;;;;;;;30.37;37.25;100831.60;1886512;75;21470;-72
2021/06/17 08:44:24;;;;;;;12.93;7.08;;;;;;;30.36;37.08;100838.24;1865417;75;21530;-72
2021/06/17 08:46:51;;;;;;;11.80;5.72;;;;;;;30.49;37.20;100841.16;1818276;78;21022;-72
2021/06/17 08:49:19;;;;;;;11.30;6.37;;;;;;;30.77;37.26;100843.60;1837431;78;21909;-73
2021/06/17 08:51:47;;;;;;;12.65;6.67;;;;;;;30.74;36.75;100840.06;1818103;78;21002;-72
2021/06/17 08:54:23;;;;;;;16.27;6.20;;;;;;;30.70;36.64;100840.37;1837523;78;21041;-72
2021/06/17 08:56:49;;;;;;;11.48;6.08;;;;;;;30.67;36.51;100842.34;1818570;78;21397;-72
2021/06/17 08:59:16;;;;;;;9.45;5.95;;;;;;;30.80;36.56;100844.39;1836894;78;21348;-73
2021/06/17 09:01:55;;;;;;;10.88;5.87;;;;;;;30.90;36.55;100840.69;1818311;78;21826;-73
2021/06/17 09:04:23;;;;;;;6.83;5.53;;;;;;;30.89;36.42;100845.95;1837209;78;21454;-73
2021/06/17 09:07:06;;;;;;;8.83;5.77;;;;;;;30.44;35.92;100838.44;1818853;78;21100;-72
2021/06/17 09:09:43;;;;;;;7.28;5.83;;;;;;;30.44;35.92;100838.44;1832785;78;21654;-72
2021/06/17 09:12:13;;;;;;;8.08;5.83;;;;;;;30.52;36.03;100836.99;1827951;78;21448;-73
2021/06/17 09:14:39;;;;;;;11.33;6.17;;;;;;;30.75;35.95;100832.63;1839022;78;21838;-72
2021/06/17 09:17:08;;;;;;;13.28;6.12;;;;;;;30.58;35.73;100835.81;1810671;78;21460;-72
2021/06/17 09:19:43;;;;;;;10.80;5.85;;;;;;;30.40;35.33;100828.30;1840134;78;20994;-72
2021/06/17 09:22:13;;;;;;;8.38;5.65;;;;;;;30.59;35.53;100830.59;1810568;78;20985;-72
2021/06/17 09:24:41;;;;;;;6.67;5.97;;;;;;;30.82;35.54;100828.41;1809283;78;20977;-73
2021/06/17 09:27:38;;;;;;;9.65;5.95;;;;;;;30.88;35.49;100823.64;1837764;78;21671;-73
2021/06/17 09:30:16;;;;;;;9.80;5.50;;;;;;;31.01;35.53;100827.91;1819288;78;20946;-72
2021/06/17 09:32:51;;;;;;;11.43;5.67;;;;;;;30.99;35.39;100827.39;1839258;76;20939;-72
2021/06/17 09:35:26;;;;;;;9.08;5.62;;;;;;;30.76;35.00;100835.06;1818974;76;20962;-73
2021/06/17 09:38:01;;;;;;;8.25;4.78;;;;;;;30.73;34.86;100826.02;1782346;79;21009;-72
2021/06/17 09:40:45;;;;;;;6.53;4.55;;;;;;;30.60;34.72;100819.29;1808088;79;21811;-72
2021/06/17 09:43:21;;;;;;;14.25;4.92;;;;;;;30.67;34.58;100820.31;1807804;79;20981;-73
2021/06/17 09:46:02;;;;;;;6.50;5.30;;;;;;;30.68;34.19;100827.47;1807715;79;20997;-72
2021/06/17 09:48:44;;;;;;;5.35;4.25;;;;;;;30.74;34.22;100823.53;1807533;79;20985;-72
2021/06/17 09:51:30;;;;;;;8.53;5.30;;;;;;;30.69;33.90;100816.70;1807885;79;21458;-73
2021/06/17 09:54:14;;;;;;;6.97;4.78;;;;;;;30.84;33.94;100812.39;1807959;79;22701;-73
2021/06/17 09:56:43;;;;;;;7.75;5.12;;;;;;;31.06;34.00;100818.20;1806499;78;21443;-72
2021/06/17 09:59:10;;;;;;;8.18;5.45;;;;;;;31.16;33.89;100815.31;1807793;79;20993;-72
2021/06/17 10:01:42;;;;;;;7.97;5.08;;;;;;;31.15;33.86;100820.55;1804257;78;21514;-73
2021/06/17 10:04:10;;;;;;;8.08;4.70;;;;;;;31.16;33.72;100819.45;1800537;79;21017;-73
2021/06/17 10:06:41;;;;;;;11.10;5.17;;;;;;;30.79;33.44;100820.70;1767428;81;21988;-72
2021/06/17 10:09:12;;;;;;;7.62;5.28;;;;;;;30.74;33.46;100831.80;1814235;78;21485;-72
2021/06/17 10:11:40;;;;;;;10.35;4.97;;;;;;;30.48;33.13;100819.41;1800699;79;21344;-72
2021/06/17 10:14:07;;;;;;;5.85;4.70;;;;;;;30.56;33.29;100812.72;1767128;81;21021;-72
2021/06/17 10:16:33;;;;;;;9.28;5.08;;;;;;;30.77;33.44;100822.95;1814318;79;21020;-72
2021/06/17 10:19:00;;;;;;;7.92;4.83;;;;;;;30.63;33.13;100818.70;1800567;79;21754;-72
2021/06/17 10:21:29;;;;;;;8.65;5.35;;;;;;;30.71;33.31;100809.80;1767319;81;20956;-72
2021/06/17 10:23:55;;;;;;;10.17;4.93;;;;;;;30.77;33.28;100824.32;1812736;78;20875;-72
2021/06/17 10:26:23;;;;;;;5.75;4.87;;;;;;;30.79;33.39;100820.70;1800530;79;21022;-72
2021/06/17 10:28:53;;;;;;;7.37;4.78;;;;;;;30.89;33.31;100822.54;1800844;79;20986;-73
2021/06/17 10:31:50;;;;;;;9.30;4.65;;;;;;;30.94;33.35;100823.28;1799648;78;22473;-72
2021/06/17 10:34:29;;;;;;;8.58;4.75;;;;;;;30.96;33.31;100827.95;1800697;79;21420;-72
2021/06/17 10:37:10;;;;;;;8.10;4.90;;;;;;;31.05;33.36;100818.49;1800761;79;21437;-72
2021/06/17 10:39:48;;;;;;;7.08;4.95;;;;;;;31.20;33.34;100821.05;1767515;81;20982;-73
2021/06/17 10:42:17;;;;;;;9.13;4.85;;;;;;;31.37;33.31;100820.53;1814713;79;20918;-73
2021/06/17 10:44:54;;;;;;;5.87;4.92;;;;;;;31.29;33.17;100813.75;1800691;79;21959;-73
2021/06/17 10:47:45;;;;;;;7.22;5.05;;;;;;;30.96;32.98;100815.56;1767383;81;21479;-72
2021/06/17 10:50:32;;;;;;;5.22;4.70;;;;;;;30.84;33.13;100812.39;1814274;79;21466;-72
2021/06/17 10:53:39;;;;;;;8.68;4.83;;;;;;;31.04;33.24;100817.67;1800302;78;21018;-73
2021/06/17 10:56:16;;;;;;;7.87;5.90;;;;;;;30.83;32.95;100812.67;1800724;79;21406;-72
2021/06/17 10:58:44;;;;;;;6.50;4.20;;;;;;;30.74;32.87;100807.01;1800040;79;21853;-73
2021/06/17 11:01:39;;;;;;;6.70;4.67;;;;;;;30.64;32.81;100803.83;1799484;78;20911;-73
2021/06/17 11:04:10;;;;;;;6.17;5.05;;;;;;;30.81;33.06;100803.34;1797834;79;21505;-72
2021/06/17 11:06:57;;;;;;;7.22;4.53;;;;;;;31.03;32.95;100810.54;1798120;79;21297;-73
2021/06/17 11:09:45;;;;;;;11.00;5.05;;;;;;;31.17;32.98;100804.53;1798151;79;21340;-73
2021/06/17 11:12:24;;;;;;;6.90;4.53;;;;;;;31.25;32.94;100806.36;1798486;79;21771;-72
2021/06/17 11:14:56;;;;;;;4.58;4.00;;;;;;;31.36;32.96;100799.59;1798163;79;20950;-72
2021/06/17 11:17:34;;;;;;;5.25;4.42;;;;;;;31.18;32.49;100795.70;1798081;79;21454;-72
2021/06/17 11:20:08;;;;;;;9.65;5.15;;;;;;;30.99;32.32;100792.95;1798072;79;20969;-73
2021/06/17 11:22:46;;;;;;;10.70;5.65;;;;;;;31.23;32.50;100791.52;1798203;79;20974;-72
2021/06/17 11:25:21;;;;;;;7.87;4.62;;;;;;;31.59;32.50;100795.97;1798094;79;21857;-73
2021/06/17 11:28:11;;;;;;;5.40;3.85;;;;;;;31.78;32.37;100808.34;1798286;79;20962;-73
2021/06/17 11:30:49;;;;;;;7.22;4.47;;;;;;;31.62;32.06;100803.64;1806525;78;21411;-73
2021/06/17 11:33:22;;;;;;;9.33;4.75;;;;;;;31.36;31.71;100800.41;1798066;79;20974;-73
2021/06/17 11:36:00;;;;;;;7.78;4.92;;;;;;;31.18;31.73;100799.28;1797653;79;21013;-73
2021/06/17 11:38:34;;;;;;;6.83;4.87;;;;;;;31.36;31.95;100796.83;1797843;79;22814;-73
2021/06/17 11:41:12;;;;;;;10.53;5.03;;;;;;;31.61;31.94;100801.99;1797299;79;20962;-73
2021/06/17 11:43:40;;;;;;;7.00;4.72;;;;;;;31.86;31.98;100794.69;1797298;79;20978;-72
2021/06/17 11:46:25;;;;;;;7.03;4.20;;;;;;;31.75;31.75;100784.94;1796934;78;21815;-73
2021/06/17 11:49:04;;;;;;;5.53;3.80;;;;;;;31.70;31.70;100794.70;1800037;78;20921;-72
2021/06/17 11:51:48;;;;;;;8.28;4.90;;;;;;;31.59;31.73;100790.45;1809685;78;21851;-73
2021/06/17 11:54:21;;;;;;;6.78;5.05;;;;;;;31.63;31.68;100799.78;1806303;78;20977;-73
2021/06/17 11:56:52;;;;;;;6.33;4.40;;;;;;;31.41;31.51;100783.81;1798367;78;21409;-73
2021/06/17 11:59:33;;;;;;;11.55;4.70;;;;;;;31.25;31.60;100774.10;1797670;78;21005;-72
2021/06/17 12:02:22;;;;;;;6.95;4.58;;;;;;;31.53;31.79;100776.47;1805248;78;21431;-73
2021/06/17 12:04:59;;;;;;;8.03;4.67;;;;;;;31.72;31.77;100763.48;1829458;77;22677;-73
2021/06/17 12:07:38;;;;;;;7.80;4.85;;;;;;;31.75;31.72;100764.80;1830285;77;21014;-73
2021/06/17 12:10:18;;;;;;;6.90;4.97;;;;;;;31.73;31.65;100766.50;1828276;77;21419;-73